createdAt,value
2018-04-15T00:02:05.388Z,99783
2018-04-15T00:04:33.437Z,99789
2018-04-15T00:07:01.496Z,99784
2018-04-15T00:09:30.327Z,99781
2018-04-15T00:11:58.379Z,99782
2018-04-15T00:14:26.434Z,99777
2018-04-15T00:16:54.470Z,99783
2018-04-15T00:19:22.514Z,99778
2018-04-15T00:21:50.571Z,99779
2018-04-15T00:24:18.619Z,99777
2018-04-15T00:26:46.671Z,99779
2018-04-15T00:29:14.720Z,99780
2018-04-15T00:31:42.766Z,99782
2018-04-15T00:34:11.572Z,99778
2018-04-15T00:36:40.379Z,99778
2018-04-15T00:39:08.479Z,99772
2018-04-15T00:41:36.520Z,99776
2018-04-15T00:44:04.574Z,99776
2018-04-15T00:46:32.614Z,99775
2018-04-15T00:49:00.673Z,99770
2018-04-15T00:51:28.719Z,99766
2018-04-15T00:54:14.492Z,99763
2018-04-15T00:56:42.539Z,99758
2018-04-15T00:59:10.792Z,99767
2018-04-15T01:01:38.855Z,99757
2018-04-15T01:04:06.908Z,99754
2018-04-15T01:06:35.718Z,99755
2018-04-15T01:09:04.536Z,99753
2018-04-15T01:11:32.635Z,99753
2018-04-15T01:14:00.680Z,99752
2018-04-15T01:16:28.727Z,99752
2018-04-15T01:18:56.783Z,99749
2018-04-15T01:21:24.867Z,99751
2018-04-15T01:23:52.919Z,99754
2018-04-15T01:26:20.960Z,99749
2018-04-15T01:28:49.011Z,99754
2018-04-15T01:31:17.081Z,99755
2018-04-15T01:33:45.906Z,99751
2018-04-15T01:36:13.947Z,99757
2018-04-15T01:38:41.987Z,99756
2018-04-15T01:41:10.063Z,99756
2018-04-15T01:43:38.146Z,99750
2018-04-15T01:46:06.244Z,99753
2018-04-15T01:48:34.285Z,99746
2018-04-15T01:51:03.117Z,99743
2018-04-15T01:53:31.210Z,99747
2018-04-15T01:55:59.286Z,99744
2018-04-15T01:58:27.329Z,99749
2018-04-15T02:00:55.455Z,99755
2018-04-15T02:03:23.499Z,99756
2018-04-15T02:05:51.547Z,99764
2018-04-15T02:08:19.591Z,99758
2018-04-15T02:10:48.411Z,99758
2018-04-15T02:13:16.455Z,99754
2018-04-15T02:15:44.504Z,99765
2018-04-15T02:18:12.550Z,99763
2018-04-15T02:20:41.464Z,99761
2018-04-15T02:23:09.510Z,99761
2018-04-15T02:25:37.564Z,99766
2018-04-15T02:28:05.611Z,99759
2018-04-15T02:30:33.661Z,99766
2018-04-15T02:33:01.792Z,99772
2018-04-15T02:35:29.872Z,99771
2018-04-15T02:37:57.919Z,99772
2018-04-15T02:40:26.763Z,99777
2018-04-15T02:42:54.851Z,99778
2018-04-15T02:45:22.931Z,99773
2018-04-15T02:47:51.023Z,99775
2018-04-15T02:50:19.061Z,99774
2018-04-15T02:52:47.107Z,99761
2018-04-15T02:55:15.152Z,99762
2018-04-15T02:57:43.963Z,99766
2018-04-15T03:00:12.058Z,99765
2018-04-15T03:02:40.093Z,99761
2018-04-15T03:05:08.144Z,99756
2018-04-15T03:07:36.192Z,99756
2018-04-15T03:10:04.999Z,99760
2018-04-15T03:12:33.047Z,99758
2018-04-15T03:15:01.095Z,99749
2018-04-15T03:17:29.171Z,99754
2018-04-15T03:19:57.205Z,99748
2018-04-15T03:22:25.263Z,99751
2018-04-15T03:24:53.299Z,99758
2018-04-15T03:27:22.134Z,99753
2018-04-15T03:29:50.202Z,99755
2018-04-15T03:32:18.243Z,99756
2018-04-15T03:34:46.364Z,99753
2018-04-15T03:37:14.415Z,99760
2018-04-15T03:39:42.532Z,99757
2018-04-15T03:42:10.639Z,99755
2018-04-15T03:44:38.695Z,99753
2018-04-15T03:47:07.502Z,99751
2018-04-15T03:49:36.311Z,99755
2018-04-15T03:52:04.357Z,99758
2018-04-15T03:54:32.409Z,99762
2018-04-15T03:57:00.447Z,99761
2018-04-15T03:59:29.267Z,99759
2018-04-15T04:01:57.312Z,99758
2018-04-15T04:04:25.440Z,99759
2018-04-15T04:06:53.480Z,99751
2018-04-15T04:09:21.533Z,99754
2018-04-15T04:11:49.575Z,99756
2018-04-15T04:14:18.392Z,99761
2018-04-15T04:16:46.437Z,99760
2018-04-15T04:19:32.274Z,99761
2018-04-15T04:22:18.143Z,99757
2018-04-15T04:25:03.963Z,99757
2018-04-15T04:27:32.774Z,99752
2018-04-15T04:30:01.583Z,99749
2018-04-15T04:32:30.703Z,99750
2018-04-15T04:34:58.761Z,99747
2018-04-15T04:37:27.579Z,99750
2018-04-15T04:39:55.627Z,99750
2018-04-15T04:42:23.680Z,99739
2018-04-15T04:44:51.746Z,99728
2018-04-15T04:47:19.800Z,99733
2018-04-15T04:49:48.606Z,99740
2018-04-15T04:52:17.431Z,99738
2018-04-15T04:54:45.483Z,99736
2018-04-15T04:57:14.320Z,99734
2018-04-15T04:59:42.375Z,99737
2018-04-15T05:02:11.275Z,99735
2018-04-15T05:04:40.096Z,99730
2018-04-15T05:07:08.911Z,99734
2018-04-15T05:09:36.995Z,99734
2018-04-15T05:12:05.071Z,99733
2018-04-15T05:14:33.167Z,99736
2018-04-15T05:17:01.218Z,99732
2018-04-15T05:19:30.031Z,99732
2018-04-15T05:21:58.860Z,99729
2018-04-15T05:24:26.920Z,99736
2018-04-15T05:26:55.719Z,99731
2018-04-15T05:29:24.524Z,99731
2018-04-15T05:31:53.347Z,99732
2018-04-15T05:34:21.395Z,99729
2018-04-15T05:36:49.449Z,99729
2018-04-15T05:39:17.500Z,99710
2018-04-15T05:41:45.551Z,99707
2018-04-15T05:44:14.365Z,99700
2018-04-15T05:46:43.184Z,99700
2018-04-15T05:49:11.227Z,99706
2018-04-15T05:51:39.284Z,99709
2018-04-15T05:54:07.339Z,99714
2018-04-15T05:56:35.380Z,99709
2018-04-15T05:59:03.432Z,99710
2018-04-15T06:01:31.479Z,99708
2018-04-15T06:03:59.527Z,99703
2018-04-15T06:06:27.656Z,99711
2018-04-15T06:08:55.719Z,99717
2018-04-15T06:11:24.528Z,99719
2018-04-15T06:13:53.348Z,99714
2018-04-15T06:16:21.387Z,99719
2018-04-15T06:18:49.440Z,99718
2018-04-15T06:21:17.488Z,99718
2018-04-15T06:23:45.535Z,99719
2018-04-15T06:26:13.587Z,99714
2018-04-15T06:28:41.637Z,99706
2018-04-15T06:31:09.739Z,99703
2018-04-15T06:33:37.824Z,99710
2018-04-15T06:36:05.914Z,99713
2018-04-15T06:38:34.005Z,99708
2018-04-15T06:41:02.052Z,99708
2018-04-15T06:43:30.975Z,99707
2018-04-15T06:45:59.060Z,99707
2018-04-15T06:48:27.571Z,99703
2018-04-15T06:50:55.644Z,99693
2018-04-15T06:53:24.488Z,99695
2018-04-15T06:55:52.521Z,99693
2018-04-15T06:58:21.320Z,99692
2018-04-15T07:00:49.522Z,99680
2018-04-15T07:03:18.375Z,99679
2018-04-15T07:05:46.420Z,99676
2018-04-15T07:08:14.491Z,99675
2018-04-15T07:10:42.555Z,99672
2018-04-15T07:13:11.377Z,99675
2018-04-15T07:15:39.468Z,99680
2018-04-15T07:18:07.521Z,99681
2018-04-15T07:20:36.342Z,99674
2018-04-15T07:23:04.407Z,99674
2018-04-15T07:25:33.231Z,99674
2018-04-15T07:28:01.291Z,99675
2018-04-15T07:30:30.115Z,99665
2018-04-15T07:32:58.151Z,99666
2018-04-15T07:35:26.195Z,99673
2018-04-15T07:37:54.242Z,99671
2018-04-15T07:40:22.305Z,99670
2018-04-15T07:42:50.452Z,99670
2018-04-15T07:45:18.563Z,99674
2018-04-15T07:47:46.612Z,99668
2018-04-15T07:50:15.420Z,99664
2018-04-15T07:52:43.495Z,99666
2018-04-15T07:55:12.292Z,99658
2018-04-15T07:57:41.127Z,99669
2018-04-15T08:00:09.207Z,99665
2018-04-15T08:02:37.255Z,99655
2018-04-15T08:05:05.312Z,99652
2018-04-15T08:07:33.351Z,99652
2018-04-15T08:10:01.452Z,99646
2018-04-15T08:12:29.519Z,99647
2018-04-15T08:14:57.575Z,99633
2018-04-15T08:20:00.346Z,99631
2018-04-15T08:22:28.379Z,99623
2018-04-15T08:24:56.444Z,99619
2018-04-15T08:27:24.588Z,99612
2018-04-15T08:29:52.645Z,99615
2018-04-15T08:32:20.696Z,99607
2018-04-15T08:34:48.758Z,99599
2018-04-15T08:37:16.818Z,99599
2018-04-15T08:39:44.877Z,99597
2018-04-15T08:42:14.523Z,99597
2018-04-15T08:44:42.595Z,99587
2018-04-15T08:47:11.415Z,99589
2018-04-15T08:49:39.455Z,99588
2018-04-15T08:52:07.592Z,99588
2018-04-15T08:54:35.728Z,99583
2018-04-15T08:57:03.715Z,99576
2018-04-15T08:59:31.793Z,99578
2018-04-15T09:01:59.919Z,99563
2018-04-15T09:04:27.993Z,99566
2018-04-15T09:06:56.813Z,99570
2018-04-15T09:09:24.871Z,99567
2018-04-15T09:11:52.919Z,99563
2018-04-15T09:14:20.983Z,99558
2018-04-15T09:16:49.023Z,99559
2018-04-15T09:19:17.910Z,99556
2018-04-15T09:21:45.928Z,99550
2018-04-15T09:24:14.298Z,99549
2018-04-15T09:26:43.129Z,99550
2018-04-15T09:29:11.171Z,99554
2018-04-15T09:31:39.291Z,99551
2018-04-15T09:34:08.195Z,99553
2018-04-15T09:36:37.002Z,99545
2018-04-15T09:39:06.036Z,99541
2018-04-15T09:41:34.115Z,99543
2018-04-15T09:44:02.207Z,99541
2018-04-15T09:46:30.256Z,99535
2018-04-15T09:48:59.123Z,99533
2018-04-15T09:51:27.183Z,99534
2018-04-15T09:53:55.251Z,99531
2018-04-15T09:56:23.312Z,99533
2018-04-15T09:58:52.132Z,99532
2018-04-15T10:01:20.172Z,99526
2018-04-15T10:03:48.303Z,99530
2018-04-15T10:06:16.489Z,99533
2018-04-15T10:08:44.579Z,99528
2018-04-15T10:11:12.655Z,99528
2018-04-15T10:13:40.796Z,99523
2018-04-15T10:16:08.854Z,99514
2018-04-15T10:18:36.927Z,99521
2018-04-15T10:21:04.979Z,99517
2018-04-15T10:23:33.807Z,99517
2018-04-15T10:26:01.888Z,99511
2018-04-15T10:28:29.983Z,99508
2018-04-15T10:30:58.122Z,99503
2018-04-15T10:33:26.295Z,99490
2018-04-15T10:35:54.337Z,99501
2018-04-15T10:38:22.411Z,99499
2018-04-15T10:40:50.515Z,99501
2018-04-15T10:43:18.596Z,99492
2018-04-15T10:45:46.639Z,99489
2018-04-15T10:48:15.571Z,99482
2018-04-15T10:50:43.612Z,99485
2018-04-15T10:53:11.678Z,99480
2018-04-15T10:55:39.832Z,99481
2018-04-15T10:58:07.891Z,99481
2018-04-15T11:00:36.719Z,99466
2018-04-15T11:03:04.762Z,99470
2018-04-15T11:05:32.892Z,99466
2018-04-15T11:08:00.951Z,99460
2018-04-15T11:10:29.778Z,99456
2018-04-15T11:12:57.819Z,99462
2018-04-15T11:15:25.880Z,99454
2018-04-15T11:17:53.943Z,99454
2018-04-15T11:20:22.008Z,99454
2018-04-15T11:22:50.147Z,99447
2018-04-15T11:25:18.283Z,99447
2018-04-15T11:27:46.431Z,99448
2018-04-15T11:30:14.559Z,99435
2018-04-15T11:32:42.591Z,99434
2018-04-15T11:35:10.652Z,99437
2018-04-15T11:37:38.708Z,99431
2018-04-15T11:40:06.767Z,99426
2018-04-15T11:42:35.577Z,99421
2018-04-15T11:45:04.410Z,99420
2018-04-15T11:47:32.451Z,99426
2018-04-15T11:50:01.275Z,99421
2018-04-15T11:52:29.380Z,99418
2018-04-15T11:54:57.449Z,99420
2018-04-15T11:57:25.492Z,99418
2018-04-15T11:59:55.156Z,99416
2018-04-15T12:02:23.245Z,99412
2018-04-15T12:04:51.332Z,99413
2018-04-15T12:07:19.392Z,99409
2018-04-15T12:09:48.233Z,99404
2018-04-15T12:12:16.300Z,99401
2018-04-15T12:14:44.338Z,99394
2018-04-15T12:17:12.517Z,99387
2018-04-15T12:19:40.540Z,99384
2018-04-15T12:22:09.457Z,99386
2018-04-15T12:24:37.499Z,99385
2018-04-15T12:27:06.355Z,99387
2018-04-15T12:29:34.412Z,99377
2018-04-15T12:32:03.340Z,99374
2018-04-15T12:34:31.425Z,99370
2018-04-15T12:36:59.469Z,99369
2018-04-15T12:39:28.298Z,99360
2018-04-15T12:41:56.351Z,99362
2018-04-15T12:44:24.500Z,99362
2018-04-15T12:46:52.555Z,99361
2018-04-15T12:49:20.595Z,99352
2018-04-15T12:51:48.660Z,99347
2018-04-15T12:54:16.710Z,99350
2018-04-15T12:56:44.772Z,99340
2018-04-15T12:59:13.604Z,99340
2018-04-15T13:01:41.672Z,99338
2018-04-15T13:04:10.602Z,99327
2018-04-15T13:06:38.636Z,99325
2018-04-15T13:09:06.703Z,99329
2018-04-15T13:11:34.744Z,99325
2018-04-15T13:14:02.905Z,99321
2018-04-15T13:16:31.025Z,99320
2018-04-15T13:18:59.064Z,99306
2018-04-15T13:21:27.124Z,99299
2018-04-15T13:23:55.184Z,99294
2018-04-15T13:26:23.253Z,99293
2018-04-15T13:28:51.377Z,99287
2018-04-15T13:31:20.148Z,99282
2018-04-15T13:33:48.187Z,99270
2018-04-15T13:36:17.141Z,99265
2018-04-15T13:38:45.227Z,99261
2018-04-15T13:41:13.317Z,99258
2018-04-15T13:43:41.435Z,99245
2018-04-15T13:46:09.578Z,99245
2018-04-15T13:48:37.626Z,99247
2018-04-15T13:51:06.451Z,99241
2018-04-15T13:53:34.505Z,99243
2018-04-15T13:56:03.343Z,99244
2018-04-15T13:58:31.398Z,99241
2018-04-15T14:01:00.227Z,99236
2018-04-15T14:03:28.275Z,99234
2018-04-15T14:05:56.411Z,99229
2018-04-15T14:08:24.474Z,99227
2018-04-15T14:10:53.403Z,99227
2018-04-15T14:13:21.452Z,99229
2018-04-15T14:15:49.524Z,99223
2018-04-15T14:18:18.420Z,99222
2018-04-15T14:20:46.436Z,99223
2018-04-15T14:23:15.268Z,99225
2018-04-15T14:25:43.319Z,99231
2018-04-15T14:28:12.127Z,99234
2018-04-15T14:30:40.200Z,99232
2018-04-15T14:33:08.318Z,99230
2018-04-15T14:35:36.388Z,99223
2018-04-15T14:38:04.432Z,99222
2018-04-15T14:40:34.123Z,99226
2018-04-15T14:43:02.235Z,99215
2018-04-15T14:45:30.238Z,99212
2018-04-15T14:47:59.066Z,99213
2018-04-15T14:50:27.308Z,99216
2018-04-15T14:52:55.447Z,99212
2018-04-15T14:55:23.519Z,99214
2018-04-15T14:57:51.583Z,99217
2018-04-15T15:00:19.651Z,99215
2018-04-15T15:02:47.725Z,99211
2018-04-15T15:05:15.768Z,99215
2018-04-15T15:07:43.858Z,99213
2018-04-15T15:10:11.920Z,99211
2018-04-15T15:12:40.724Z,99213
2018-04-15T15:15:09.648Z,99210
2018-04-15T15:17:37.718Z,99206
2018-04-15T15:20:06.518Z,99202
2018-04-15T15:22:35.342Z,99204
2018-04-15T15:25:03.452Z,99202
2018-04-15T15:27:31.454Z,99203
2018-04-15T15:29:59.511Z,99201
2018-04-15T15:32:27.552Z,99195
2018-04-15T15:34:56.476Z,99200
2018-04-15T15:37:24.572Z,99193
2018-04-15T15:39:52.622Z,99200
2018-04-15T15:42:21.615Z,99202
2018-04-15T15:44:49.643Z,99195
2018-04-15T15:47:17.859Z,99198
2018-04-15T15:49:45.873Z,99198
2018-04-15T15:52:13.923Z,99195
2018-04-15T15:54:41.971Z,99200
2018-04-15T15:57:10.069Z,99203
2018-04-15T15:59:38.112Z,99201
2018-04-15T16:02:06.949Z,99197
2018-04-15T16:04:34.997Z,99197
2018-04-15T16:07:03.043Z,99199
2018-04-15T16:09:31.094Z,99201
2018-04-15T16:11:59.132Z,99206
2018-04-15T16:14:27.171Z,99197
2018-04-15T16:16:55.222Z,99196
2018-04-15T16:19:24.061Z,99194
2018-04-15T16:21:52.123Z,99198
2018-04-15T16:24:20.927Z,99191
2018-04-15T16:26:49.044Z,99189
2018-04-15T16:29:17.115Z,99183
2018-04-15T16:31:45.170Z,99183
2018-04-15T16:34:13.251Z,99178
2018-04-15T16:36:41.266Z,99185
2018-04-15T16:39:09.303Z,99187
2018-04-15T16:41:38.868Z,99189
2018-04-15T16:44:06.920Z,99193
2018-04-15T16:46:35.040Z,99195
2018-04-15T16:49:03.082Z,99193
2018-04-15T16:51:31.127Z,99191
2018-04-15T16:53:59.183Z,99192
2018-04-15T16:56:27.993Z,99194
2018-04-15T16:58:56.019Z,99193
2018-04-15T17:01:24.169Z,99192
2018-04-15T17:03:53.062Z,99192
2018-04-15T17:06:21.159Z,99193
2018-04-15T17:08:49.300Z,99185
2018-04-15T17:11:17.366Z,99182
2018-04-15T17:13:45.409Z,99188
2018-04-15T17:16:13.456Z,99185
2018-04-15T17:18:41.503Z,99184
2018-04-15T17:21:09.566Z,99193
2018-04-15T17:23:37.613Z,99198
2018-04-15T17:26:05.684Z,99200
2018-04-15T17:28:33.712Z,99211
2018-04-15T17:31:01.752Z,99218
2018-04-15T17:33:29.806Z,99219
2018-04-15T17:35:57.886Z,99220
2018-04-15T17:38:25.961Z,99217
2018-04-15T17:40:54.060Z,99221
2018-04-15T17:43:22.044Z,99226
2018-04-15T17:45:50.125Z,99226
2018-04-15T17:48:18.909Z,99232
2018-04-15T17:50:46.957Z,99237
2018-04-15T17:53:15.073Z,99240
2018-04-15T17:55:43.112Z,99240
2018-04-15T17:58:11.228Z,99257
2018-04-15T18:00:40.036Z,99259
2018-04-15T18:03:08.854Z,99274
2018-04-15T18:05:36.938Z,99275
2018-04-15T18:08:04.984Z,99279
2018-04-15T18:10:33.104Z,99283
2018-04-15T18:13:01.155Z,99285
2018-04-15T18:15:29.198Z,99285
2018-04-15T18:17:57.263Z,99286
2018-04-15T18:20:25.385Z,99288
2018-04-15T18:22:53.437Z,99294
2018-04-15T18:25:21.516Z,99298
2018-04-15T18:27:49.700Z,99298
2018-04-15T18:30:18.332Z,99302
2018-04-15T18:32:46.513Z,99305
2018-04-15T18:35:14.575Z,99315
2018-04-15T18:37:42.634Z,99314
2018-04-15T18:40:11.455Z,99314
2018-04-15T18:42:39.512Z,99317
2018-04-15T18:45:08.328Z,99322
2018-04-15T18:47:37.151Z,99326
2018-04-15T18:50:05.221Z,99322
2018-04-15T18:52:34.032Z,99328
2018-04-15T18:55:02.091Z,99323
2018-04-15T18:57:30.911Z,99333
2018-04-15T18:59:59.012Z,99333
2018-04-15T19:02:27.299Z,99329
2018-04-15T19:04:55.355Z,99331
2018-04-15T19:07:24.200Z,99327
2018-04-15T19:09:52.243Z,99329
2018-04-15T19:12:21.050Z,99328
2018-04-15T19:14:49.972Z,99332
2018-04-15T19:17:18.022Z,99333
2018-04-15T19:19:46.071Z,99335
2018-04-15T19:22:14.111Z,99334
2018-04-15T19:24:42.169Z,99335
2018-04-15T19:27:10.205Z,99338
2018-04-15T19:29:38.263Z,99342
2018-04-15T19:32:07.100Z,99340
2018-04-15T19:34:35.179Z,99339
2018-04-15T19:37:03.247Z,99342
2018-04-15T19:39:31.312Z,99340
2018-04-15T19:42:00.203Z,99338
2018-04-15T19:44:28.277Z,99344
2018-04-15T19:46:56.337Z,99351
2018-04-15T19:49:24.416Z,99351
2018-04-15T19:51:52.423Z,99352
2018-04-15T19:54:20.474Z,99356
2018-04-15T19:56:48.607Z,99354
2018-04-15T19:59:17.442Z,99355
2018-04-15T20:01:45.532Z,99365
2018-04-15T20:04:13.625Z,99359
2018-04-15T20:06:41.677Z,99370
2018-04-15T20:09:10.488Z,99373
2018-04-15T20:11:39.310Z,99368
2018-04-15T20:14:07.355Z,99368
2018-04-15T20:16:35.471Z,99367
2018-04-15T20:19:03.514Z,99360
2018-04-15T20:21:31.568Z,99364
2018-04-15T20:23:59.607Z,99358
2018-04-15T20:26:28.443Z,99353
2018-04-15T20:28:56.516Z,99359
2018-04-15T20:31:24.588Z,99360
2018-04-15T20:33:53.383Z,99363
2018-04-15T20:36:22.307Z,99364
2018-04-15T20:38:50.395Z,99366
2018-04-15T20:41:18.443Z,99366
2018-04-15T20:43:46.512Z,99368
2018-04-15T20:46:14.558Z,99377
2018-04-15T20:48:42.624Z,99377
2018-04-15T20:51:11.435Z,99382
2018-04-15T20:53:39.479Z,99384
2018-04-15T20:56:07.539Z,99379
2018-04-15T20:58:35.575Z,99381
2018-04-15T21:01:03.635Z,99389
2018-04-15T21:03:31.675Z,99387
2018-04-15T21:05:59.724Z,99390
2018-04-15T21:08:28.731Z,99387
2018-04-15T21:10:57.530Z,99392
2018-04-15T21:13:25.583Z,99388
2018-04-15T21:15:53.622Z,99394
2018-04-15T21:18:21.671Z,99391
2018-04-15T21:20:50.507Z,99392
2018-04-15T21:23:18.589Z,99399
2018-04-15T21:25:46.636Z,99401
2018-04-15T21:28:14.684Z,99400
2018-04-15T21:30:42.736Z,99400
2018-04-15T21:33:10.780Z,99400
2018-04-15T21:35:38.835Z,99397
2018-04-15T21:38:06.883Z,99398
2018-04-15T21:40:34.986Z,99397
2018-04-15T21:43:03.053Z,99393
2018-04-15T21:45:31.145Z,99390
2018-04-15T21:47:59.191Z,99382
2018-04-15T21:50:27.253Z,99382
2018-04-15T21:52:55.295Z,99380
2018-04-15T21:55:23.360Z,99374
2018-04-15T21:57:52.204Z,99373
2018-04-15T22:00:20.254Z,99377
2018-04-15T22:02:49.051Z,99374
2018-04-15T22:05:17.867Z,99367
2018-04-15T22:07:45.955Z,99366
2018-04-15T22:10:13.992Z,99365
2018-04-15T22:12:42.049Z,99360
2018-04-15T22:15:10.099Z,99367
2018-04-15T22:17:38.203Z,99366
2018-04-15T22:20:06.299Z,99368
2018-04-15T22:22:34.340Z,99366
2018-04-15T22:25:03.160Z,99366
2018-04-15T22:27:31.204Z,99365
2018-04-15T22:29:59.249Z,99361
2018-04-15T22:32:27.299Z,99362
2018-04-15T22:34:56.113Z,99355
2018-04-15T22:37:24.160Z,99357
2018-04-15T22:39:52.207Z,99355
2018-04-15T22:42:20.251Z,99333
2018-04-15T22:44:49.058Z,99325
2018-04-15T22:47:17.874Z,99324
2018-04-15T22:49:45.928Z,99324
2018-04-15T22:52:14.156Z,99322
2018-04-15T22:54:42.215Z,99326
2018-04-15T22:57:14.032Z,99332
2018-04-15T22:59:42.807Z,99327
2018-04-15T23:02:10.855Z,99343
2018-04-15T23:04:38.904Z,99347
2018-04-15T23:07:06.968Z,99347
2018-04-15T23:09:35.019Z,99347
2018-04-15T23:12:03.827Z,99346
2018-04-15T23:14:32.668Z,99343
2018-04-15T23:17:00.718Z,99344
2018-04-15T23:19:29.527Z,99346
2018-04-15T23:21:58.344Z,99345
2018-04-15T23:24:26.436Z,99348
2018-04-15T23:26:54.476Z,99353
2018-04-15T23:29:22.553Z,99357
2018-04-15T23:31:50.589Z,99358
2018-04-15T23:34:18.634Z,99358
2018-04-15T23:36:47.447Z,99367
2018-04-15T23:39:16.277Z,99364
2018-04-15T23:41:44.352Z,99360
2018-04-15T23:44:12.395Z,99357
2018-04-15T23:46:40.439Z,99362
2018-04-15T23:49:08.483Z,99369
2018-04-15T23:51:37.312Z,99364
2018-04-15T23:54:05.335Z,99360
2018-04-15T23:56:33.518Z,99361
2018-04-15T23:59:01.564Z,99361
